Monticello, MO (63457)

07:14 PM CDT die 31o October, anno 2014 (GMT -0500)
LIVE WEATHER | Change Station
CLOSE
Current Station
Personal Weather Stations
Location: Quincy, IL
Elevation: 620 ft
Nearby Weather Stations
Active Advisory: Freeze Warning

Elev 620 ft 40.00 °N, 91.38 °W | Updated 5 seconds ago

Serena
Serena
37.4 °F
Feels Like 31 °F
N
8.7
Ventus Variabilis Ventus from Aquilo
Gusts 12.8 mph

Hodie
High -- | Low -- °F
--% Chance of Precip.
Yesterday
High -- | Low -- °F
Precip. -- in
7:34 AM 6:05 PM
First Quarter, 60% visible
Pressio 30.41 in
Visibilitas 10.0 milia passuum
Clouds Serena
Frigus Venti 31 °F
Frigus in quo Ros apparet 16 °F
Umor 42%
Rainfall 0.00 in
Snow Depth Not available.
UV 0 out of 12
Pollen .50 out of 12
Air Quality Not available.
Flu Activity Not available.
METAR KEOK 312355Z AUTO 35007KT 10SM CLR 03/M06 A3041 RMK AO2

More Conditions Fewer Conditions

Pressio 30.41 in
Visibilitas 10.0 milia passuum
Clouds Serena
Frigus Venti 31 °F
Frigus in quo Ros apparet 16 °F
Umor 42%
Rainfall 0.00 in
Snow Depth Not available.
UV 0 out of 12
Pollen .50 out of 12
Air Quality Not available.
Flu Activity Not available.
METAR KEOK 312355Z AUTO 35007KT 10SM CLR 03/M06 A3041 RMK AO2

More Conditions Fewer Conditions

10-Day Weather Forecast

Almanac

Astronomy

Oct. 31, 2014 Rise Set
Actual Time
Civil Twilight
Nautical Twilight
Astronomical Twilight
Moon
Length Of Visible Light
Length of Day
Tomorrow will be .
, % of the Moon is Illuminated

Today's Extremes

State Highs State Lows

Community

WunderPhotos

Upload Photos

1,766,788 photos uploaded!

WunderBlogs® & News

Nearby

Air Quality

  Air Quality AQ Index Pollutant
Not available.

Snow Depth

Station Depth Elevation

Earthquake Activity

City Distance Mag. Time & Date
Minimum magnitude displayed is 2.5.

Coastal Water Temperatures

Locus Calor

Nearby Weather Stations